sensor_id;sensor_type;location;lat;lon;timestamp;temperature;humidity
14995;DHT22;7593;49.006;8.372;2023-02-04T00:00:03;7.80;99.90
14995;DHT22;7593;49.006;8.372;2023-02-04T00:02:34;7.90;99.90
14995;DHT22;7593;49.006;8.372;2023-02-04T00:05:02;7.80;99.90
14995;DHT22;7593;49.006;8.372;2023-02-04T00:07:32;7.80;99.90
14995;DHT22;7593;49.006;8.372;2023-02-04T00:10:02;7.80;99.90
14995;DHT22;7593;49.006;8.372;2023-02-04T00:12:30;7.80;99.90
14995;DHT22;7593;49.006;8.372;2023-02-04T00:14:58;7.80;99.90
14995;DHT22;7593;49.006;8.372;2023-02-04T00:17:26;7.80;99.90
14995;DHT22;7593;49.006;8.372;2023-02-04T00:19:54;7.80;99.90
14995;DHT22;7593;49.006;8.372;2023-02-04T00:22:21;7.80;99.90
14995;DHT22;7593;49.006;8.372;2023-02-04T00:24:48;7.70;99.90
14995;DHT22;7593;49.006;8.372;2023-02-04T00:27:15;7.70;99.90
14995;DHT22;7593;49.006;8.372;2023-02-04T00:29:42;7.70;99.90
14995;DHT22;7593;49.006;8.372;2023-02-04T00:32:09;7.70;99.90
14995;DHT22;7593;49.006;8.372;2023-02-04T00:34:36;7.70;99.90
14995;DHT22;7593;49.006;8.372;2023-02-04T00:37:04;7.60;99.90
14995;DHT22;7593;49.006;8.372;2023-02-04T00:39:31;7.60;99.90
14995;DHT22;7593;49.006;8.372;2023-02-04T00:41:57;7.60;99.90
14995;DHT22;7593;49.006;8.372;2023-02-04T00:44:24;7.60;99.90
14995;DHT22;7593;49.006;8.372;2023-02-04T00:46:51;7.60;99.90
14995;DHT22;7593;49.006;8.372;2023-02-04T00:49:18;7.50;99.90
14995;DHT22;7593;49.006;8.372;2023-02-04T00:51:45;7.50;99.90
14995;DHT22;7593;49.006;8.372;2023-02-04T00:54:13;7.50;99.90
14995;DHT22;7593;49.006;8.372;2023-02-04T00:56:41;7.50;99.90
14995;DHT22;7593;49.006;8.372;2023-02-04T00:59:08;7.40;99.90
14995;DHT22;7593;49.006;8.372;2023-02-04T01:01:35;7.40;99.90
14995;DHT22;7593;49.006;8.372;2023-02-04T01:04:02;7.40;99.90
14995;DHT22;7593;49.006;8.372;2023-02-04T01:06:29;7.40;99.90
14995;DHT22;7593;49.006;8.372;2023-02-04T01:08:56;7.40;99.90
14995;DHT22;7593;49.006;8.372;2023-02-04T01:11:24;7.40;99.90
14995;DHT22;7593;49.006;8.372;2023-02-04T01:13:51;7.40;99.90
14995;DHT22;7593;49.006;8.372;2023-02-04T01:16:18;7.40;99.90
14995;DHT22;7593;49.006;8.372;2023-02-04T01:18:45;7.40;99.90
14995;DHT22;7593;49.006;8.372;2023-02-04T01:21:14;7.40;99.90
14995;DHT22;7593;49.006;8.372;2023-02-04T01:23:41;7.40;99.90
14995;DHT22;7593;49.006;8.372;2023-02-04T01:26:08;7.40;99.90
14995;DHT22;7593;49.006;8.372;2023-02-04T01:28:36;7.40;99.90
14995;DHT22;7593;49.006;8.372;2023-02-04T01:31:03;7.40;99.90
14995;DHT22;7593;49.006;8.372;2023-02-04T01:33:30;7.40;99.90
14995;DHT22;7593;49.006;8.372;2023-02-04T01:35:57;7.40;99.90
14995;DHT22;7593;49.006;8.372;2023-02-04T01:38:24;7.40;99.90
14995;DHT22;7593;49.006;8.372;2023-02-04T01:40:51;7.40;99.90
14995;DHT22;7593;49.006;8.372;2023-02-04T01:43:19;7.40;99.90
14995;DHT22;7593;49.006;8.372;2023-02-04T01:45:49;7.40;99.90
14995;DHT22;7593;49.006;8.372;2023-02-04T01:48:17;7.40;99.90
14995;DHT22;7593;49.006;8.372;2023-02-04T01:50:50;7.40;99.90
14995;DHT22;7593;49.006;8.372;2023-02-04T01:53:21;7.40;99.90
14995;DHT22;7593;49.006;8.372;2023-02-04T01:55:48;7.40;99.90
14995;DHT22;7593;49.006;8.372;2023-02-04T01:58:16;7.30;99.90
14995;DHT22;7593;49.006;8.372;2023-02-04T02:00:43;7.30;99.90
14995;DHT22;7593;49.006;8.372;2023-02-04T02:03:11;7.20;99.90
14995;DHT22;7593;49.006;8.372;2023-02-04T02:05:40;7.20;99.90
14995;DHT22;7593;49.006;8.372;2023-02-04T02:08:08;7.20;99.90
14995;DHT22;7593;49.006;8.372;2023-02-04T02:10:37;7.20;99.90
14995;DHT22;7593;49.006;8.372;2023-02-04T02:13:05;7.20;99.90
14995;DHT22;7593;49.006;8.372;2023-02-04T02:15:33;7.20;99.90
14995;DHT22;7593;49.006;8.372;2023-02-04T02:18:00;7.20;99.90
14995;DHT22;7593;49.006;8.372;2023-02-04T02:20:28;7.20;99.90
14995;DHT22;7593;49.006;8.372;2023-02-04T02:23:01;7.20;99.90
14995;DHT22;7593;49.006;8.372;2023-02-04T02:25:31;7.20;99.90
14995;DHT22;7593;49.006;8.372;2023-02-04T02:27:59;7.20;99.90
14995;DHT22;7593;49.006;8.372;2023-02-04T02:30:27;7.20;99.90
14995;DHT22;7593;49.006;8.372;2023-02-04T02:32:54;7.30;99.90
14995;DHT22;7593;49.006;8.372;2023-02-04T02:35:22;7.30;99.90
14995;DHT22;7593;49.006;8.372;2023-02-04T02:37:49;7.20;99.90
14995;DHT22;7593;49.006;8.372;2023-02-04T02:40:16;7.20;99.90
14995;DHT22;7593;49.006;8.372;2023-02-04T02:42:47;7.20;99.90
14995;DHT22;7593;49.006;8.372;2023-02-04T02:45:21;7.20;99.90
14995;DHT22;7593;49.006;8.372;2023-02-04T02:47:49;7.20;99.90
14995;DHT22;7593;49.006;8.372;2023-02-04T02:50:19;7.20;99.90
14995;DHT22;7593;49.006;8.372;2023-02-04T02:52:46;7.20;99.90
14995;DHT22;7593;49.006;8.372;2023-02-04T02:55:14;7.20;99.90
14995;DHT22;7593;49.006;8.372;2023-02-04T02:57:44;7.30;99.90
14995;DHT22;7593;49.006;8.372;2023-02-04T03:00:17;7.30;99.90
14995;DHT22;7593;49.006;8.372;2023-02-04T03:02:50;7.30;99.90
14995;DHT22;7593;49.006;8.372;2023-02-04T03:05:19;7.30;99.90
14995;DHT22;7593;49.006;8.372;2023-02-04T03:07:46;7.30;99.90
14995;DHT22;7593;49.006;8.372;2023-02-04T03:10:13;7.30;99.90
14995;DHT22;7593;49.006;8.372;2023-02-04T03:12:40;7.30;99.90
14995;DHT22;7593;49.006;8.372;2023-02-04T03:15:12;7.30;99.90
14995;DHT22;7593;49.006;8.372;2023-02-04T03:17:40;7.30;99.90
14995;DHT22;7593;49.006;8.372;2023-02-04T03:20:08;7.30;99.90
14995;DHT22;7593;49.006;8.372;2023-02-04T03:22:45;7.30;99.90
14995;DHT22;7593;49.006;8.372;2023-02-04T03:25:13;7.30;99.90
14995;DHT22;7593;49.006;8.372;2023-02-04T03:27:43;7.30;99.90
14995;DHT22;7593;49.006;8.372;2023-02-04T03:30:12;7.30;99.90
14995;DHT22;7593;49.006;8.372;2023-02-04T03:32:38;7.20;99.90
14995;DHT22;7593;49.006;8.372;2023-02-04T03:35:06;7.20;99.90
14995;DHT22;7593;49.006;8.372;2023-02-04T03:37:33;7.10;99.90
14995;DHT22;7593;49.006;8.372;2023-02-04T03:39:59;7.10;99.90
14995;DHT22;7593;49.006;8.372;2023-02-04T03:42:26;7.10;99.90
14995;DHT22;7593;49.006;8.372;2023-02-04T03:44:53;7.10;99.90
14995;DHT22;7593;49.006;8.372;2023-02-04T03:47:21;7.10;99.90
14995;DHT22;7593;49.006;8.372;2023-02-04T03:49:50;7.00;99.90
14995;DHT22;7593;49.006;8.372;2023-02-04T03:52:17;7.10;99.90
14995;DHT22;7593;49.006;8.372;2023-02-04T03:54:45;7.00;99.90
14995;DHT22;7593;49.006;8.372;2023-02-04T03:57:12;7.00;99.90
14995;DHT22;7593;49.006;8.372;2023-02-04T03:59:40;7.00;99.90
14995;DHT22;7593;49.006;8.372;2023-02-04T04:02:07;7.00;99.90
14995;DHT22;7593;49.006;8.372;2023-02-04T04:04:35;7.00;99.90
14995;DHT22;7593;49.006;8.372;2023-02-04T04:07:02;7.00;99.90
14995;DHT22;7593;49.006;8.372;2023-02-04T04:09:29;7.00;99.90
14995;DHT22;7593;49.006;8.372;2023-02-04T04:11:56;7.00;99.90
14995;DHT22;7593;49.006;8.372;2023-02-04T04:14:23;6.90;99.90
14995;DHT22;7593;49.006;8.372;2023-02-04T04:16:49;6.90;99.90
14995;DHT22;7593;49.006;8.372;2023-02-04T04:19:16;6.90;99.90
14995;DHT22;7593;49.006;8.372;2023-02-04T04:21:45;6.90;99.90
14995;DHT22;7593;49.006;8.372;2023-02-04T04:24:18;6.80;99.90
14995;DHT22;7593;49.006;8.372;2023-02-04T04:26:44;6.80;99.90
14995;DHT22;7593;49.006;8.372;2023-02-04T04:29:11;6.80;99.90
14995;DHT22;7593;49.006;8.372;2023-02-04T04:31:40;6.80;99.90
14995;DHT22;7593;49.006;8.372;2023-02-04T04:34:07;6.80;99.90
14995;DHT22;7593;49.006;8.372;2023-02-04T04:36:34;6.70;99.90
14995;DHT22;7593;49.006;8.372;2023-02-04T04:39:02;6.70;99.90
14995;DHT22;7593;49.006;8.372;2023-02-04T04:41:29;6.70;99.90
14995;DHT22;7593;49.006;8.372;2023-02-04T04:43:56;6.70;99.90
14995;DHT22;7593;49.006;8.372;2023-02-04T04:46:23;6.70;99.90
14995;DHT22;7593;49.006;8.372;2023-02-04T04:48:50;6.70;99.90
14995;DHT22;7593;49.006;8.372;2023-02-04T04:51:17;6.70;99.90
14995;DHT22;7593;49.006;8.372;2023-02-04T04:53:44;6.70;99.90
14995;DHT22;7593;49.006;8.372;2023-02-04T04:56:12;6.70;99.90
14995;DHT22;7593;49.006;8.372;2023-02-04T04:58:38;6.70;99.90
14995;DHT22;7593;49.006;8.372;2023-02-04T05:01:05;6.70;99.90
14995;DHT22;7593;49.006;8.372;2023-02-04T05:03:32;6.70;99.90
14995;DHT22;7593;49.006;8.372;2023-02-04T05:05:58;6.60;99.90
14995;DHT22;7593;49.006;8.372;2023-02-04T05:08:25;6.60;99.90
14995;DHT22;7593;49.006;8.372;2023-02-04T05:10:52;6.60;99.90
14995;DHT22;7593;49.006;8.372;2023-02-04T05:13:20;6.60;99.90
14995;DHT22;7593;49.006;8.372;2023-02-04T05:15:48;6.60;99.90
14995;DHT22;7593;49.006;8.372;2023-02-04T05:18:15;6.50;99.90
14995;DHT22;7593;49.006;8.372;2023-02-04T05:20:41;6.50;99.90
14995;DHT22;7593;49.006;8.372;2023-02-04T05:23:09;6.50;99.90
14995;DHT22;7593;49.006;8.372;2023-02-04T05:25:35;6.50;99.90
14995;DHT22;7593;49.006;8.372;2023-02-04T05:28:02;6.50;99.90
14995;DHT22;7593;49.006;8.372;2023-02-04T05:30:30;6.50;99.90
14995;DHT22;7593;49.006;8.372;2023-02-04T05:32:57;6.50;99.90
14995;DHT22;7593;49.006;8.372;2023-02-04T05:35:24;6.50;99.90
14995;DHT22;7593;49.006;8.372;2023-02-04T05:37:51;6.50;99.90
14995;DHT22;7593;49.006;8.372;2023-02-04T05:40:17;6.50;99.90
14995;DHT22;7593;49.006;8.372;2023-02-04T05:42:44;6.50;99.90
14995;DHT22;7593;49.006;8.372;2023-02-04T05:45:13;6.50;99.90
14995;DHT22;7593;49.006;8.372;2023-02-04T05:47:42;6.50;99.90
14995;DHT22;7593;49.006;8.372;2023-02-04T05:50:09;6.50;99.90
14995;DHT22;7593;49.006;8.372;2023-02-04T05:52:36;6.50;99.90
14995;DHT22;7593;49.006;8.372;2023-02-04T05:55:04;6.50;99.90
14995;DHT22;7593;49.006;8.372;2023-02-04T05:57:30;6.50;99.90
14995;DHT22;7593;49.006;8.372;2023-02-04T05:59:57;6.50;99.90
14995;DHT22;7593;49.006;8.372;2023-02-04T06:02:24;6.50;99.90
14995;DHT22;7593;49.006;8.372;2023-02-04T06:04:52;6.50;99.90
14995;DHT22;7593;49.006;8.372;2023-02-04T06:07:19;6.50;99.90
14995;DHT22;7593;49.006;8.372;2023-02-04T06:09:45;6.50;99.90
14995;DHT22;7593;49.006;8.372;2023-02-04T06:12:13;6.50;99.90
14995;DHT22;7593;49.006;8.372;2023-02-04T06:14:39;6.50;99.90
14995;DHT22;7593;49.006;8.372;2023-02-04T06:17:06;6.50;99.90
14995;DHT22;7593;49.006;8.372;2023-02-04T06:19:33;6.50;99.90
14995;DHT22;7593;49.006;8.372;2023-02-04T06:22:01;6.60;99.90
14995;DHT22;7593;49.006;8.372;2023-02-04T06:24:28;6.50;99.90
14995;DHT22;7593;49.006;8.372;2023-02-04T06:26:54;6.50;99.90
14995;DHT22;7593;49.006;8.372;2023-02-04T06:29:21;6.50;99.90
14995;DHT22;7593;49.006;8.372;2023-02-04T06:31:48;6.60;99.90
14995;DHT22;7593;49.006;8.372;2023-02-04T06:34:14;6.50;99.90
14995;DHT22;7593;49.006;8.372;2023-02-04T06:36:41;6.50;99.90
14995;DHT22;7593;49.006;8.372;2023-02-04T06:39:09;6.50;99.90
14995;DHT22;7593;49.006;8.372;2023-02-04T06:41:36;6.50;99.90
14995;DHT22;7593;49.006;8.372;2023-02-04T06:44:03;6.50;99.90
14995;DHT22;7593;49.006;8.372;2023-02-04T06:46:30;6.50;99.90
14995;DHT22;7593;49.006;8.372;2023-02-04T06:48:56;6.50;99.90
14995;DHT22;7593;49.006;8.372;2023-02-04T06:51:23;6.50;99.90
14995;DHT22;7593;49.006;8.372;2023-02-04T06:53:50;6.40;99.90
14995;DHT22;7593;49.006;8.372;2023-02-04T06:56:18;6.40;99.90
14995;DHT22;7593;49.006;8.372;2023-02-04T06:58:45;6.40;99.90
14995;DHT22;7593;49.006;8.372;2023-02-04T07:01:12;6.40;99.90
14995;DHT22;7593;49.006;8.372;2023-02-04T07:03:39;6.40;99.90
14995;DHT22;7593;49.006;8.372;2023-02-04T07:06:06;6.30;99.90
14995;DHT22;7593;49.006;8.372;2023-02-04T07:08:32;6.30;99.90
14995;DHT22;7593;49.006;8.372;2023-02-04T07:10:59;6.30;99.90
14995;DHT22;7593;49.006;8.372;2023-02-04T07:13:27;6.30;99.90
14995;DHT22;7593;49.006;8.372;2023-02-04T07:15:54;6.30;99.90
14995;DHT22;7593;49.006;8.372;2023-02-04T07:18:21;6.30;99.90
14995;DHT22;7593;49.006;8.372;2023-02-04T07:20:48;6.30;99.90
14995;DHT22;7593;49.006;8.372;2023-02-04T07:23:15;6.30;99.90
14995;DHT22;7593;49.006;8.372;2023-02-04T07:25:41;6.30;99.90
14995;DHT22;7593;49.006;8.372;2023-02-04T07:28:09;6.30;99.90
14995;DHT22;7593;49.006;8.372;2023-02-04T07:30:37;6.30;99.90
14995;DHT22;7593;49.006;8.372;2023-02-04T07:33:04;6.30;99.90
14995;DHT22;7593;49.006;8.372;2023-02-04T07:35:31;6.40;99.90
14995;DHT22;7593;49.006;8.372;2023-02-04T07:37:58;6.40;99.90
14995;DHT22;7593;49.006;8.372;2023-02-04T07:40:25;6.40;99.90
14995;DHT22;7593;49.006;8.372;2023-02-04T07:42:51;6.40;99.90
14995;DHT22;7593;49.006;8.372;2023-02-04T07:45:18;6.40;99.90
14995;DHT22;7593;49.006;8.372;2023-02-04T07:47:46;6.50;99.90
14995;DHT22;7593;49.006;8.372;2023-02-04T07:50:14;6.50;99.90
14995;DHT22;7593;49.006;8.372;2023-02-04T07:52:41;6.50;99.90
14995;DHT22;7593;49.006;8.372;2023-02-04T07:55:08;6.50;99.90
14995;DHT22;7593;49.006;8.372;2023-02-04T07:57:35;6.50;99.90
14995;DHT22;7593;49.006;8.372;2023-02-04T08:00:06;6.60;99.90
14995;DHT22;7593;49.006;8.372;2023-02-04T08:02:33;6.60;99.90
14995;DHT22;7593;49.006;8.372;2023-02-04T08:05:01;6.60;99.90
14995;DHT22;7593;49.006;8.372;2023-02-04T08:07:28;6.60;99.90
14995;DHT22;7593;49.006;8.372;2023-02-04T08:09:55;6.70;99.90
14995;DHT22;7593;49.006;8.372;2023-02-04T08:12:21;6.70;99.90
14995;DHT22;7593;49.006;8.372;2023-02-04T08:14:48;6.80;99.90
14995;DHT22;7593;49.006;8.372;2023-02-04T08:17:15;6.80;99.90
14995;DHT22;7593;49.006;8.372;2023-02-04T08:19:42;6.80;99.90
14995;DHT22;7593;49.006;8.372;2023-02-04T08:22:10;6.90;99.90
14995;DHT22;7593;49.006;8.372;2023-02-04T08:24:36;6.90;99.90
14995;DHT22;7593;49.006;8.372;2023-02-04T08:27:03;6.90;99.90
14995;DHT22;7593;49.006;8.372;2023-02-04T08:29:30;7.00;99.90
14995;DHT22;7593;49.006;8.372;2023-02-04T08:31:57;7.00;99.90
14995;DHT22;7593;49.006;8.372;2023-02-04T08:34:24;7.00;99.90
14995;DHT22;7593;49.006;8.372;2023-02-04T08:36:50;7.10;99.90
14995;DHT22;7593;49.006;8.372;2023-02-04T08:39:19;7.10;99.90
14995;DHT22;7593;49.006;8.372;2023-02-04T08:41:45;7.20;99.90
14995;DHT22;7593;49.006;8.372;2023-02-04T08:44:13;7.20;99.90
14995;DHT22;7593;49.006;8.372;2023-02-04T08:46:40;7.30;99.90
14995;DHT22;7593;49.006;8.372;2023-02-04T08:49:07;7.30;99.90
14995;DHT22;7593;49.006;8.372;2023-02-04T08:51:34;7.40;99.90
14995;DHT22;7593;49.006;8.372;2023-02-04T08:54:00;7.40;99.90
14995;DHT22;7593;49.006;8.372;2023-02-04T08:56:28;7.40;99.90
14995;DHT22;7593;49.006;8.372;2023-02-04T08:58:55;7.50;99.90
14995;DHT22;7593;49.006;8.372;2023-02-04T09:01:22;7.50;99.90
14995;DHT22;7593;49.006;8.372;2023-02-04T09:03:49;7.50;99.90
14995;DHT22;7593;49.006;8.372;2023-02-04T09:06:16;7.60;99.90
14995;DHT22;7593;49.006;8.372;2023-02-04T09:08:42;7.70;99.90
14995;DHT22;7593;49.006;8.372;2023-02-04T09:11:09;7.80;99.90
14995;DHT22;7593;49.006;8.372;2023-02-04T09:13:38;8.00;99.90
14995;DHT22;7593;49.006;8.372;2023-02-04T09:16:05;8.20;99.90
14995;DHT22;7593;49.006;8.372;2023-02-04T09:18:32;8.60;99.90
14995;DHT22;7593;49.006;8.372;2023-02-04T09:20:59;8.80;99.90
14995;DHT22;7593;49.006;8.372;2023-02-04T09:23:26;9.20;99.90
14995;DHT22;7593;49.006;8.372;2023-02-04T09:25:53;9.40;99.90
14995;DHT22;7593;49.006;8.372;2023-02-04T09:28:19;9.60;99.90
14995;DHT22;7593;49.006;8.372;2023-02-04T09:30:47;9.70;99.90
14995;DHT22;7593;49.006;8.372;2023-02-04T09:33:15;9.70;99.90
14995;DHT22;7593;49.006;8.372;2023-02-04T09:35:42;9.70;99.90
14995;DHT22;7593;49.006;8.372;2023-02-04T09:38:08;9.70;99.90
14995;DHT22;7593;49.006;8.372;2023-02-04T09:40:39;9.60;99.90
14995;DHT22;7593;49.006;8.372;2023-02-04T09:43:11;9.50;99.90
14995;DHT22;7593;49.006;8.372;2023-02-04T09:45:39;9.40;99.90
14995;DHT22;7593;49.006;8.372;2023-02-04T09:48:09;9.30;99.90
14995;DHT22;7593;49.006;8.372;2023-02-04T09:50:38;9.20;99.90
14995;DHT22;7593;49.006;8.372;2023-02-04T09:53:06;9.20;99.90
14995;DHT22;7593;49.006;8.372;2023-02-04T09:55:34;9.30;99.90
14995;DHT22;7593;49.006;8.372;2023-02-04T09:58:07;9.30;99.90
14995;DHT22;7593;49.006;8.372;2023-02-04T10:00:37;9.30;99.90
14995;DHT22;7593;49.006;8.372;2023-02-04T10:03:14;9.30;99.90
14995;DHT22;7593;49.006;8.372;2023-02-04T10:05:43;9.20;99.90
14995;DHT22;7593;49.006;8.372;2023-02-04T10:08:13;9.30;99.90
14995;DHT22;7593;49.006;8.372;2023-02-04T10:10:40;9.40;99.90
14995;DHT22;7593;49.006;8.372;2023-02-04T10:13:10;9.40;99.90
14995;DHT22;7593;49.006;8.372;2023-02-04T10:15:40;9.30;99.90
14995;DHT22;7593;49.006;8.372;2023-02-04T10:18:07;9.20;99.90
14995;DHT22;7593;49.006;8.372;2023-02-04T10:20:36;9.00;99.90
14995;DHT22;7593;49.006;8.372;2023-02-04T10:23:03;8.90;99.90
14995;DHT22;7593;49.006;8.372;2023-02-04T10:25:30;8.80;99.90
14995;DHT22;7593;49.006;8.372;2023-02-04T10:27:58;8.70;99.90
14995;DHT22;7593;49.006;8.372;2023-02-04T10:30:27;8.70;99.90
14995;DHT22;7593;49.006;8.372;2023-02-04T10:32:58;8.70;99.90
14995;DHT22;7593;49.006;8.372;2023-02-04T10:35:25;8.70;99.90
14995;DHT22;7593;49.006;8.372;2023-02-04T10:38:06;8.70;99.90
14995;DHT22;7593;49.006;8.372;2023-02-04T10:40:34;8.80;99.90
14995;DHT22;7593;49.006;8.372;2023-02-04T10:43:09;9.00;99.90
14995;DHT22;7593;49.006;8.372;2023-02-04T10:45:36;9.30;99.90
14995;DHT22;7593;49.006;8.372;2023-02-04T10:48:15;9.60;99.90
14995;DHT22;7593;49.006;8.372;2023-02-04T10:50:42;9.80;99.90
14995;DHT22;7593;49.006;8.372;2023-02-04T10:53:15;9.80;99.90
14995;DHT22;7593;49.006;8.372;2023-02-04T10:55:59;9.90;99.90
14995;DHT22;7593;49.006;8.372;2023-02-04T10:58:28;10.20;99.90
14995;DHT22;7593;49.006;8.372;2023-02-04T11:00:55;10.40;99.90
14995;DHT22;7593;49.006;8.372;2023-02-04T11:03:23;10.70;99.90
14995;DHT22;7593;49.006;8.372;2023-02-04T11:05:52;10.70;99.90
14995;DHT22;7593;49.006;8.372;2023-02-04T11:08:24;10.40;99.90
14995;DHT22;7593;49.006;8.372;2023-02-04T11:10:55;10.20;99.90
14995;DHT22;7593;49.006;8.372;2023-02-04T11:13:24;9.90;99.90
14995;DHT22;7593;49.006;8.372;2023-02-04T11:16:08;9.70;99.90
14995;DHT22;7593;49.006;8.372;2023-02-04T11:18:45;9.50;99.90
14995;DHT22;7593;49.006;8.372;2023-02-04T11:21:22;9.40;99.90
14995;DHT22;7593;49.006;8.372;2023-02-04T11:24:03;9.30;99.90
14995;DHT22;7593;49.006;8.372;2023-02-04T11:26:32;9.30;99.90
14995;DHT22;7593;49.006;8.372;2023-02-04T11:29:25;9.30;99.90
14995;DHT22;7593;49.006;8.372;2023-02-04T11:32:01;9.40;99.90
14995;DHT22;7593;49.006;8.372;2023-02-04T11:34:45;9.50;99.90
14995;DHT22;7593;49.006;8.372;2023-02-04T11:37:36;9.60;99.90
14995;DHT22;7593;49.006;8.372;2023-02-04T11:40:29;9.90;99.90
14995;DHT22;7593;49.006;8.372;2023-02-04T11:42:58;10.30;99.90
14995;DHT22;7593;49.006;8.372;2023-02-04T11:45:28;10.40;99.90
14995;DHT22;7593;49.006;8.372;2023-02-04T11:47:56;10.70;99.90
14995;DHT22;7593;49.006;8.372;2023-02-04T11:50:26;11.00;99.90
14995;DHT22;7593;49.006;8.372;2023-02-04T11:52:55;11.50;99.90
14995;DHT22;7593;49.006;8.372;2023-02-04T11:55:23;11.90;99.90
14995;DHT22;7593;49.006;8.372;2023-02-04T11:57:52;12.10;99.90
14995;DHT22;7593;49.006;8.372;2023-02-04T12:00:21;12.50;99.90
14995;DHT22;7593;49.006;8.372;2023-02-04T12:02:50;12.80;99.90
14995;DHT22;7593;49.006;8.372;2023-02-04T12:05:20;12.90;99.90
14995;DHT22;7593;49.006;8.372;2023-02-04T12:07:47;12.80;99.90
14995;DHT22;7593;49.006;8.372;2023-02-04T12:10:24;12.40;99.90
14995;DHT22;7593;49.006;8.372;2023-02-04T12:12:53;12.20;99.90
14995;DHT22;7593;49.006;8.372;2023-02-04T12:15:23;12.00;99.90
14995;DHT22;7593;49.006;8.372;2023-02-04T12:18:02;11.90;99.90
14995;DHT22;7593;49.006;8.372;2023-02-04T12:20:30;11.70;99.90
14995;DHT22;7593;49.006;8.372;2023-02-04T12:22:57;11.80;99.90
14995;DHT22;7593;49.006;8.372;2023-02-04T12:25:25;12.10;99.90
14995;DHT22;7593;49.006;8.372;2023-02-04T12:27:52;12.30;99.90
14995;DHT22;7593;49.006;8.372;2023-02-04T12:30:20;12.30;99.90
14995;DHT22;7593;49.006;8.372;2023-02-04T12:32:47;12.60;99.90
14995;DHT22;7593;49.006;8.372;2023-02-04T12:35:14;12.90;99.90
14995;DHT22;7593;49.006;8.372;2023-02-04T12:37:41;13.20;99.90
14995;DHT22;7593;49.006;8.372;2023-02-04T12:40:12;13.40;99.90
14995;DHT22;7593;49.006;8.372;2023-02-04T12:42:40;13.70;99.90
14995;DHT22;7593;49.006;8.372;2023-02-04T12:45:08;13.90;99.90
14995;DHT22;7593;49.006;8.372;2023-02-04T12:47:35;13.70;99.90
14995;DHT22;7593;49.006;8.372;2023-02-04T12:50:02;13.60;99.90
14995;DHT22;7593;49.006;8.372;2023-02-04T12:52:28;13.60;99.90
14995;DHT22;7593;49.006;8.372;2023-02-04T12:54:56;13.30;99.90
14995;DHT22;7593;49.006;8.372;2023-02-04T12:57:24;12.80;99.90
14995;DHT22;7593;49.006;8.372;2023-02-04T12:59:53;12.50;99.90
14995;DHT22;7593;49.006;8.372;2023-02-04T13:02:22;12.20;99.90
14995;DHT22;7593;49.006;8.372;2023-02-04T13:04:49;12.00;99.90
14995;DHT22;7593;49.006;8.372;2023-02-04T13:07:15;11.70;99.90
14995;DHT22;7593;49.006;8.372;2023-02-04T13:09:42;11.50;99.90
14995;DHT22;7593;49.006;8.372;2023-02-04T13:12:09;11.50;99.90
14995;DHT22;7593;49.006;8.372;2023-02-04T13:14:38;12.00;99.90
14995;DHT22;7593;49.006;8.372;2023-02-04T13:17:06;12.60;99.90
14995;DHT22;7593;49.006;8.372;2023-02-04T13:19:41;13.00;99.90
14995;DHT22;7593;49.006;8.372;2023-02-04T13:22:08;13.60;99.90
14995;DHT22;7593;49.006;8.372;2023-02-04T13:24:34;13.90;99.90
14995;DHT22;7593;49.006;8.372;2023-02-04T13:27:01;14.30;99.90
14995;DHT22;7593;49.006;8.372;2023-02-04T13:29:28;14.60;99.90
14995;DHT22;7593;49.006;8.372;2023-02-04T13:31:55;14.90;99.90
14995;DHT22;7593;49.006;8.372;2023-02-04T13:34:23;15.30;99.90
14995;DHT22;7593;49.006;8.372;2023-02-04T13:36:50;15.20;99.90
14995;DHT22;7593;49.006;8.372;2023-02-04T13:39:16;15.30;99.90
14995;DHT22;7593;49.006;8.372;2023-02-04T13:41:43;15.20;99.90
14995;DHT22;7593;49.006;8.372;2023-02-04T13:44:10;14.70;99.90
14995;DHT22;7593;49.006;8.372;2023-02-04T13:46:37;14.40;99.90
14995;DHT22;7593;49.006;8.372;2023-02-04T13:49:04;13.70;99.90
14995;DHT22;7593;49.006;8.372;2023-02-04T13:51:32;13.30;99.90
14995;DHT22;7593;49.006;8.372;2023-02-04T13:53:59;12.80;99.90
14995;DHT22;7593;49.006;8.372;2023-02-04T13:56:25;12.50;99.90
14995;DHT22;7593;49.006;8.372;2023-02-04T13:58:52;12.20;99.90
14995;DHT22;7593;49.006;8.372;2023-02-04T14:01:19;11.80;99.90
14995;DHT22;7593;49.006;8.372;2023-02-04T14:03:46;11.50;99.90
14995;DHT22;7593;49.006;8.372;2023-02-04T14:06:13;11.30;99.90
14995;DHT22;7593;49.006;8.372;2023-02-04T14:08:41;11.10;99.90
14995;DHT22;7593;49.006;8.372;2023-02-04T14:11:08;10.90;99.90
14995;DHT22;7593;49.006;8.372;2023-02-04T14:13:35;10.70;99.90
14995;DHT22;7593;49.006;8.372;2023-02-04T14:16:01;10.60;99.90
14995;DHT22;7593;49.006;8.372;2023-02-04T14:18:28;10.50;99.90
14995;DHT22;7593;49.006;8.372;2023-02-04T14:20:55;10.50;99.90
14995;DHT22;7593;49.006;8.372;2023-02-04T14:23:22;10.80;99.90
14995;DHT22;7593;49.006;8.372;2023-02-04T14:25:50;11.30;99.90
14995;DHT22;7593;49.006;8.372;2023-02-04T14:28:17;11.80;99.90
14995;DHT22;7593;49.006;8.372;2023-02-04T14:30:44;12.40;99.90
14995;DHT22;7593;49.006;8.372;2023-02-04T14:33:11;12.90;99.90
14995;DHT22;7593;49.006;8.372;2023-02-04T14:35:39;13.30;99.90
14995;DHT22;7593;49.006;8.372;2023-02-04T14:38:06;13.60;99.90
14995;DHT22;7593;49.006;8.372;2023-02-04T14:40:33;13.80;99.90
14995;DHT22;7593;49.006;8.372;2023-02-04T14:43:01;14.00;99.90
14995;DHT22;7593;49.006;8.372;2023-02-04T14:45:28;14.30;99.90
14995;DHT22;7593;49.006;8.372;2023-02-04T14:47:55;14.50;99.90
14995;DHT22;7593;49.006;8.372;2023-02-04T14:50:25;14.60;99.90
14995;DHT22;7593;49.006;8.372;2023-02-04T14:52:53;14.70;99.90
14995;DHT22;7593;49.006;8.372;2023-02-04T14:55:21;14.90;99.90
14995;DHT22;7593;49.006;8.372;2023-02-04T14:57:48;14.90;99.90
14995;DHT22;7593;49.006;8.372;2023-02-04T15:00:18;14.70;99.90
14995;DHT22;7593;49.006;8.372;2023-02-04T15:02:45;14.60;99.90
14995;DHT22;7593;49.006;8.372;2023-02-04T15:05:12;14.50;99.90
14995;DHT22;7593;49.006;8.372;2023-02-04T15:07:40;14.00;99.90
14995;DHT22;7593;49.006;8.372;2023-02-04T15:10:08;14.00;99.90
14995;DHT22;7593;49.006;8.372;2023-02-04T15:12:35;14.00;99.90
14995;DHT22;7593;49.006;8.372;2023-02-04T15:15:03;13.90;99.90
14995;DHT22;7593;49.006;8.372;2023-02-04T15:17:31;13.90;99.90
14995;DHT22;7593;49.006;8.372;2023-02-04T15:19:58;13.60;99.90
14995;DHT22;7593;49.006;8.372;2023-02-04T15:22:25;13.20;99.90
14995;DHT22;7593;49.006;8.372;2023-02-04T15:24:52;12.80;99.90
14995;DHT22;7593;49.006;8.372;2023-02-04T15:27:19;12.40;99.90
14995;DHT22;7593;49.006;8.372;2023-02-04T15:29:50;12.00;99.90
14995;DHT22;7593;49.006;8.372;2023-02-04T15:32:17;11.60;99.90
14995;DHT22;7593;49.006;8.372;2023-02-04T15:34:46;11.40;99.90
14995;DHT22;7593;49.006;8.372;2023-02-04T15:37:13;11.20;99.90
14995;DHT22;7593;49.006;8.372;2023-02-04T15:39:40;11.00;99.90
14995;DHT22;7593;49.006;8.372;2023-02-04T15:42:08;10.80;99.90
14995;DHT22;7593;49.006;8.372;2023-02-04T15:44:35;10.70;99.90
14995;DHT22;7593;49.006;8.372;2023-02-04T15:47:02;10.50;99.90
14995;DHT22;7593;49.006;8.372;2023-02-04T15:49:29;10.40;99.90
14995;DHT22;7593;49.006;8.372;2023-02-04T15:51:57;10.30;99.90
14995;DHT22;7593;49.006;8.372;2023-02-04T15:54:24;10.20;99.90
14995;DHT22;7593;49.006;8.372;2023-02-04T15:56:54;10.10;99.90
14995;DHT22;7593;49.006;8.372;2023-02-04T15:59:27;10.00;99.90
14995;DHT22;7593;49.006;8.372;2023-02-04T16:01:54;9.90;99.90